Terminal Aerodrome Forecast
Issued by NWS Twin Cities, MN

Home | Current Version | Previous Version | Text Only | Print | Product List | Glossary On
Versions: 1 2 3 4 5 6 7 8 9 10 11 12 13 14 15 16 17 18 19 20 21 22 23 24 25 26 27 28 29 30
533
FTUS43 KMPX 252030 AAB
TAFMSP
TAF AMD
KMSP 252030Z 2521/2624 12012KT P6SM VCSH SCT015 SCT080 OVC120
      TEMPO 2521/2524 3SM TSRA BKN025CB
     FM260000 14009KT P6SM SCT050 BKN250
     FM260900 19004KT 5SM BR SCT250
     FM261300 23008KT P6SM SCT250=

USA.gov is the U.S. government's official web portal to all federal, state and local government web resources and services.